Date,TemperatureHighF,TemperatureAvgF,TemperatureLowF,DewpointHighF,DewpointAvgF,DewpointLowF,HumidityHigh,HumidityAvg,HumidityLow,PressureMaxIn,PressureMinIn,WindSpeedMaxMPH,WindSpeedAvgMPH,GustSpeedMaxMPH,PrecipitationSumIn
2013-3-1,64.0,55.9,49.0,48.0,39.5,27.0,86,57,28,29.94,29.84,15,4,20,0.00
2013-3-2,61.0,51.3,41.0,37.0,32.0,22.0,76,49,24,29.97,29.88,18,5,33,0.00
2013-3-3,54.0,44.7,37.0,32.0,30.3,28.0,75,58,39,30.10,29.94,16,4,27,0.00
2013-3-4,65.0,47.3,31.0,38.0,29.1,19.0,96,57,20,30.18,30.06,10,1,16,0.00
2013-3-5,77.0,58.9,38.0,56.0,40.3,29.0,98,58,25,30.13,29.95,12,4,20,0.00
2013-3-6,69.0,60.1,49.0,61.0,39.2,23.0,94,52,20,30.07,29.86,18,7,27,0.01
2013-3-7,67.0,52.2,40.0,47.0,38.2,31.0,95,61,35,30.16,30.06,9,2,14,0.00
2013-3-8,75.0,54.7,39.0,52.0,41.5,31.0,98,70,21,30.17,30.06,10,1,13,0.00
2013-3-9,78.0,58.4,43.0,53.0,47.7,42.0,98,73,33,30.17,30.09,6,1,13,0.00
2013-3-10,81.0,63.2,50.0,59.0,53.2,49.0,98,74,36,30.13,30.03,8,2,18,0.00
2013-3-11,80.0,65.2,50.0,61.0,55.7,49.0,98,75,43,30.07,29.86,10,2,16,0.01
2013-3-12,71.0,66.4,58.0,68.0,62.8,56.0,98,88,77,29.95,29.81,11,4,19,0.22
2013-3-13,74.0,60.3,48.0,57.0,41.7,27.0,96,58,18,30.11,29.95,11,3,17,0.00
2013-3-14,67.0,53.2,42.0,45.0,34.8,22.0,91,55,20,30.21,30.09,11,3,18,0.00
2013-3-15,73.0,53.3,36.0,47.0,36.1,27.0,98,62,22,30.24,30.09,10,1,16,0.00
2013-3-16,80.0,60.1,42.0,49.0,41.1,36.0,98,58,21,30.14,29.98,11,2,18,0.00
2013-3-17,79.0,62.5,44.0,59.0,49.7,41.0,98,67,36,30.09,29.94,12,2,19,0.00
2013-3-18,80.0,71.0,61.0,66.0,61.6,57.0,93,74,53,30.01,29.85,13,3,19,0.01
2013-3-19,87.0,72.8,62.0,65.0,60.8,53.0,98,71,32,29.96,29.82,7,2,13,0.02
2013-3-20,76.0,67.7,60.0,69.0,62.8,58.0,98,85,64,29.91,29.73,12,2,18,0.47
2013-3-21,71.0,58.5,48.0,58.0,41.3,25.0,97,61,20,29.91,29.80,11,2,17,0.00
2013-3-22,80.0,59.5,43.0,62.0,49.1,39.0,98,75,27,29.96,29.84,10,1,17,0.07
2013-3-23,87.0,72.6,62.0,72.0,65.8,61.0,98,82,51,29.93,29.69,13,3,24,0.04
2013-3-24,83.0,72.3,65.0,73.0,68.7,63.0,98,89,64,29.80,29.56,26,5,40,1.06
2013-3-25,73.0,65.6,55.0,68.0,45.7,23.0,94,56,17,29.97,29.65,15,5,24,0.00
2013-3-26,61.0,53.5,46.0,38.0,27.1,16.0,62,38,19,30.17,29.96,16,5,29,0.00
2013-3-27,63.0,50.0,37.0,41.0,31.5,24.0,88,53,25,30.25,30.14,11,2,17,0.00
2013-3-28,72.0,52.8,36.0,44.0,36.0,24.0,98,63,17,30.25,30.12,9,1,14,0.00
2013-3-29,77.0,57.1,41.0,51.0,38.9,28.0,98,61,19,30.27,30.14,7,1,11,0.00
2013-3-30,79.0,61.5,44.0,54.0,46.8,40.0,98,65,26,30.21,30.06,10,2,18,0.00
2013-3-31,82.0,68.9,58.0,57.0,52.8,47.0,88,60,30,30.12,29.93,13,4,21,0.00